Algodones, NM

9:20 AM MDT on October 02, 2014 (GMT -0600)
On The Loop | Change Station
CLOSE
Current Station
Personal Weather Station
Location: Placitas, NM
Elevation: 5260 ft
Nearby Weather Stations
Active Advisory: Special Statement

Elev 5260 ft 35.34 °N, 106.50 °W | Updated 17 minutes ago

Clear
Clear
51.0 °F
Feels Like 51.0 °F
N
5.0
Wind Variable Wind from WSW
Gusts 9.0 mph

Today
High -- | Low -- °F
--% Chance of Precip.
Yesterday
High -- | Low -- °F
Precip. -- in
7:01 AM 6:48 PM
First Quarter, 59% visible
Pressure 30.22 in
Visibility 10.0 miles
Clouds Clear
Dew Point 29 °F
Humidity 42%
Rainfall 0.00 in
Snow Depth 1 in , 1 in , 1 in
UV 1.2 out of 12
Pollen 6.00 out of 12
Air Quality Not available.
Flu Activity Not available.
METAR KAEG 021447Z 31015KT 10SM SKC 09/M03 A3022

More Conditions Fewer Conditions

Pressure 30.22 in
Visibility 10.0 miles
Clouds Clear
Dew Point 29 °F
Humidity 42%
Rainfall 0.00 in
Snow Depth 1 in , 1 in , 1 in
UV 1.2 out of 12
Pollen 6.00 out of 12
Air Quality Not available.
Flu Activity Not available.
METAR KAEG 021447Z 31015KT 10SM SKC 09/M03 A3022

More Conditions Fewer Conditions

10-Day Weather Forecast

Almanac

Astronomy

Oct. 02, 2014 Rise Set
Actual Time 7:01 AM MDT 6:48 PM MDT
Civil Twilight 6:36 AM MDT 7:13 PM MDT
Nautical Twilight 6:06 AM MDT 7:43 PM MDT
Astronomical Twilight 5:37 AM MDT 8:12 PM MDT
Moon 2:45 PM MDT 12:33 AM MDT
Length of Visible Light 12h 37m
Length of Day
11h 46m
Tomorrow will be 2m 12s shorter.
First Quarter, 59% of the Moon is Illuminated
Today
First Quarter
Oct 8
Full
Oct 15
Last Quarter
Oct 23
New
Oct 30
First Quarter

Today's Extremes

State Highs State Lows

Community

WunderPhotos

Upload Photos

1,758,255 photos uploaded!

WunderBlogs® & News

By Dr. Jeff Masters
Director of Meteorology, Weather Underground
By Kari Strenfel
Meteorologist, Weather Underground
By Christopher C. Burt
Weather Historian, Weather Underground
October 2, 2014
October 2, 2014
October 2, 2014

Nearby

Snow Depth

Station Depth Elevation
Red River Pass #2 1 in 9850 ft
Chamita 1 in 8400 ft
Hopewell 1 in 10000 ft
Gallegos Peak 1 in 9800 ft
Wesner Springs 3 in 11120 ft

Earthquake Activity

City Distance Mag. Time & Date
Trinidad, Colorado 144 miles 2.9 3:55 AM MDT
2014-09-30
Minimum magnitude displayed is 2.5.

Coastal Water Temperatures

Place Temperature
No Stations Reporting

Nearby Weather Stations